createdAt,value
2022-09-17T00:01:58.526Z,22.73
2022-09-17T00:06:53.227Z,22.51
2022-09-17T00:11:46.648Z,22.21
2022-09-17T00:16:43.524Z,22.70
2022-09-17T00:21:36.867Z,21.82
2022-09-17T00:26:33.404Z,21.99
2022-09-17T00:31:27.798Z,22.25
2022-09-17T00:36:21.857Z,22.10
2022-09-17T00:41:15.054Z,22.94
2022-09-17T00:46:21.246Z,22.12
2022-09-17T00:51:19.740Z,23.17
2022-09-17T00:56:20.090Z,23.07
2022-09-17T01:01:15.271Z,22.99
2022-09-17T01:06:19.049Z,22.83
2022-09-17T01:11:30.406Z,23.23
2022-09-17T01:16:32.773Z,22.78
2022-09-17T01:21:43.416Z,23.32
2022-09-17T01:27:19.068Z,22.73
2022-09-17T01:32:20.289Z,23.23
2022-09-17T01:37:17.089Z,22.73
2022-09-17T01:42:18.913Z,22.92
2022-09-17T01:47:22.470Z,22.48
2022-09-17T01:52:17.002Z,23.02
2022-09-17T01:57:15.571Z,23.10
2022-09-17T02:02:14.723Z,22.85
2022-09-17T02:07:20.662Z,22.60
2022-09-17T02:12:22.335Z,22.82
2022-09-17T02:17:23.598Z,22.71
2022-09-17T02:22:25.258Z,22.70
2022-09-17T02:27:25.968Z,23.21
2022-09-17T02:32:19.251Z,22.80
2022-09-17T02:37:14.658Z,22.79
2022-09-17T02:42:25.210Z,22.07
2022-09-17T02:47:56.851Z,22.65
2022-09-17T02:53:03.191Z,22.67
2022-09-17T02:58:13.445Z,22.69
2022-09-17T03:03:13.886Z,22.58
2022-09-17T03:08:14.253Z,22.52
2022-09-17T03:13:16.444Z,21.98
2022-09-17T03:18:10.196Z,21.54
2022-09-17T03:23:03.374Z,21.25
2022-09-17T03:27:56.613Z,21.35
2022-09-17T03:32:51.163Z,21.09
2022-09-17T03:37:44.298Z,21.71
2022-09-17T03:42:37.536Z,20.87
2022-09-17T03:47:33.167Z,21.54
2022-09-17T03:52:27.712Z,21.06
2022-09-17T03:57:20.903Z,21.22
2022-09-17T04:02:14.193Z,21.33
2022-09-17T04:07:07.739Z,20.81
2022-09-17T04:12:22.320Z,20.65
2022-09-17T04:17:18.355Z,20.79
2022-09-17T04:22:11.638Z,20.95
2022-09-17T04:27:06.372Z,20.76
2022-09-17T04:31:59.589Z,20.27
2022-09-17T04:36:55.844Z,21.09
2022-09-17T04:41:49.074Z,21.10
2022-09-17T04:46:43.794Z,20.50
2022-09-17T04:51:41.344Z,20.99
2022-09-17T04:56:34.570Z,21.00
2022-09-17T05:01:27.821Z,21.05
2022-09-17T05:06:22.771Z,21.13
2022-09-17T05:11:16.059Z,21.20
2022-09-17T05:16:09.402Z,21.27
2022-09-17T05:21:02.697Z,20.91
2022-09-17T05:26:09.398Z,21.35
2022-09-17T05:31:09.773Z,21.27
2022-09-17T05:36:03.322Z,21.82
2022-09-17T05:40:56.629Z,21.65
2022-09-17T05:45:53.553Z,21.72
2022-09-17T05:50:47.184Z,22.25
2022-09-17T05:55:40.688Z,22.05
2022-09-17T06:00:34.078Z,22.47
2022-09-17T06:05:28.705Z,22.42
2022-09-17T06:10:22.046Z,22.88
2022-09-17T06:15:15.218Z,22.94
2022-09-17T06:20:09.806Z,22.42
2022-09-17T06:25:04.520Z,22.56
2022-09-17T06:29:57.654Z,22.92
2022-09-17T06:34:54.218Z,23.07
2022-09-17T06:39:47.687Z,23.08
2022-09-17T06:44:42.204Z,23.09
2022-09-17T06:49:35.441Z,23.16
2022-09-17T06:54:28.653Z,23.24
2022-09-17T06:59:24.811Z,23.28
2022-09-17T07:04:21.311Z,22.94
2022-09-17T07:09:29.333Z,23.25
2022-09-17T07:14:24.848Z,23.10
2022-09-17T07:19:19.518Z,22.64
2022-09-17T07:24:12.783Z,23.38
2022-09-17T07:29:06.091Z,23.47
2022-09-17T07:33:59.537Z,23.57
2022-09-17T07:38:56.435Z,24.03
2022-09-17T07:43:49.600Z,24.11
2022-09-17T07:48:43.028Z,24.20
2022-09-17T07:53:36.227Z,24.35
2022-09-17T07:58:34.418Z,24.50
2022-09-17T08:03:27.826Z,24.66
2022-09-17T08:08:21.487Z,24.83
2022-09-17T08:13:14.724Z,24.99
2022-09-17T08:18:09.278Z,25.09
2022-09-17T08:23:02.858Z,25.01
2022-09-17T08:27:56.760Z,24.90
2022-09-17T08:32:50.082Z,25.28
2022-09-17T08:37:44.887Z,25.41
2022-09-17T08:42:43.064Z,25.32
2022-09-17T08:47:38.656Z,25.93
2022-09-17T08:53:14.089Z,27.26
2022-09-17T09:01:00.685Z,26.49
2022-09-17T09:11:31.161Z,27.58
2022-09-17T09:16:27.242Z,27.55
2022-09-17T09:21:27.900Z,26.94
2022-09-17T09:26:25.332Z,27.23
2022-09-17T09:31:40.453Z,27.49
2022-09-17T09:36:35.186Z,27.34
2022-09-17T09:41:38.017Z,26.82
2022-09-17T09:46:48.292Z,27.20
2022-09-17T09:51:53.151Z,26.92
2022-09-17T09:56:59.388Z,27.43
2022-09-17T10:01:55.475Z,27.09
2022-09-17T10:06:51.799Z,27.44
2022-09-17T10:12:04.207Z,27.58
2022-09-17T10:17:24.221Z,28.14
2022-09-17T10:22:27.691Z,27.79
2022-09-17T10:27:24.458Z,27.97
2022-09-17T10:32:21.431Z,28.23
2022-09-17T10:37:35.504Z,27.90
2022-09-17T10:42:28.923Z,28.10
2022-09-17T10:47:26.614Z,28.17
2022-09-17T10:52:26.742Z,28.13
2022-09-17T10:57:33.271Z,28.28
2022-09-17T11:03:04.797Z,28.19
2022-09-17T11:08:26.688Z,27.36
2022-09-17T11:13:27.634Z,28.00
2022-09-17T11:18:40.792Z,27.95
2022-09-17T11:23:52.293Z,27.98
2022-09-17T11:28:59.057Z,27.89
2022-09-17T11:34:29.063Z,27.24
2022-09-17T11:39:28.673Z,27.10
2022-09-17T11:44:27.852Z,27.11
2022-09-17T11:49:28.908Z,27.28
2022-09-17T11:54:29.024Z,26.85
2022-09-17T11:59:31.721Z,27.23
2022-09-17T12:04:42.480Z,26.64
2022-09-17T12:09:39.980Z,26.84
2022-09-17T12:15:06.319Z,27.19
2022-09-17T12:20:07.749Z,26.85
2022-09-17T12:25:05.091Z,26.58
2022-09-17T12:30:11.219Z,26.65
2022-09-17T12:35:16.211Z,26.76
2022-09-17T12:40:22.996Z,26.14
2022-09-17T12:45:29.083Z,26.08
2022-09-17T12:50:37.683Z,25.69
2022-09-17T12:56:27.434Z,25.01
2022-09-17T13:01:29.910Z,25.59
2022-09-17T13:06:51.504Z,25.66
2022-09-17T13:12:11.355Z,25.46
2022-09-17T13:17:09.646Z,24.93
2022-09-17T13:22:07.360Z,25.54
2022-09-17T13:27:03.158Z,25.57
2022-09-17T13:31:58.707Z,25.69
2022-09-17T13:36:58.082Z,25.16
2022-09-17T13:42:05.893Z,25.31
2022-09-17T13:47:20.288Z,25.87
2022-09-17T13:52:16.407Z,26.23
2022-09-17T13:57:15.991Z,26.83
2022-09-17T14:02:37.794Z,26.58
2022-09-17T14:07:52.407Z,26.59
2022-09-17T14:12:55.612Z,26.37
2022-09-17T14:17:54.509Z,26.34
2022-09-17T14:23:04.559Z,26.32
2022-09-17T14:28:08.414Z,26.47
2022-09-17T14:33:09.852Z,26.62
2022-09-17T14:38:12.774Z,26.35
2022-09-17T14:43:07.159Z,26.23
2022-09-17T14:48:29.827Z,25.99
2022-09-17T14:53:25.767Z,26.28
2022-09-17T14:58:42.273Z,26.10
2022-09-17T15:03:36.499Z,25.84
2022-09-17T15:08:32.130Z,25.80
2022-09-17T15:13:29.131Z,25.62
2022-09-17T15:18:31.979Z,25.10
2022-09-17T15:23:29.059Z,25.09
2022-09-17T15:28:31.641Z,25.28
2022-09-17T15:33:25.835Z,25.15
2022-09-17T15:38:55.218Z,24.71
2022-09-17T15:43:54.726Z,24.30
2022-09-17T15:48:54.525Z,24.95
2022-09-17T15:53:53.774Z,24.86
2022-09-17T15:58:59.200Z,24.15
2022-09-17T16:04:33.528Z,24.02
2022-09-17T16:09:55.135Z,24.70
2022-09-17T16:14:57.192Z,24.43
2022-09-17T16:19:50.358Z,23.75
2022-09-17T16:24:43.682Z,23.70
2022-09-17T16:29:40.027Z,24.37
2022-09-17T16:34:36.469Z,24.31
2022-09-17T16:39:29.778Z,24.23
2022-09-17T16:44:22.923Z,23.73
2022-09-17T16:49:16.185Z,23.47
2022-09-17T16:54:20.193Z,24.05
2022-09-17T16:59:13.396Z,23.92
2022-09-17T17:04:06.728Z,23.95
2022-09-17T17:09:03.590Z,23.88
2022-09-17T17:13:58.197Z,23.62
2022-09-17T17:18:53.404Z,23.86
2022-09-17T17:23:49.186Z,23.28
2022-09-17T17:28:44.952Z,23.76
2022-09-17T17:33:39.770Z,23.75
2022-09-17T17:38:35.433Z,23.71
2022-09-17T17:43:28.713Z,23.58
2022-09-17T17:48:21.835Z,22.88
2022-09-17T17:53:20.282Z,22.99
2022-09-17T17:58:13.506Z,23.42
2022-09-17T18:03:06.773Z,23.36
2022-09-17T18:08:00.010Z,22.95
2022-09-17T18:12:55.150Z,23.68
2022-09-17T18:17:53.596Z,23.43
2022-09-17T18:22:48.079Z,23.64
2022-09-17T18:27:47.611Z,23.01
2022-09-17T18:32:42.910Z,23.09
2022-09-17T18:37:36.183Z,23.52
2022-09-17T18:42:29.402Z,23.61
2022-09-17T18:47:24.190Z,23.60
2022-09-17T18:52:20.224Z,23.30
2022-09-17T18:57:13.487Z,23.01
2022-09-17T19:02:07.075Z,23.37
2022-09-17T19:07:02.325Z,23.42
2022-09-17T19:11:55.781Z,23.18
2022-09-17T19:16:52.153Z,23.37
2022-09-17T19:21:45.646Z,23.12
2022-09-17T19:26:43.645Z,22.68
2022-09-17T19:31:39.138Z,23.30
2022-09-17T19:36:32.496Z,22.86
2022-09-17T19:41:26.426Z,22.77
2022-09-17T19:46:24.647Z,22.41
2022-09-17T19:51:20.970Z,23.20
2022-09-17T19:56:16.395Z,23.28
2022-09-17T20:01:10.038Z,22.94
2022-09-17T20:06:08.308Z,23.02
2022-09-17T20:11:08.133Z,23.26
2022-09-17T20:16:05.181Z,23.22
2022-09-17T20:20:58.663Z,22.86
2022-09-17T20:25:56.876Z,22.81
2022-09-17T20:30:50.269Z,23.26
2022-09-17T20:35:43.462Z,23.24
2022-09-17T20:40:36.813Z,22.74
2022-09-17T20:45:31.754Z,22.43
2022-09-17T20:50:24.991Z,22.15
2022-09-17T20:55:18.463Z,22.99
2022-09-17T21:00:19.187Z,23.18
2022-09-17T21:05:14.129Z,22.72
2022-09-17T21:10:08.684Z,22.85
2022-09-17T21:15:02.082Z,22.81
2022-09-17T21:19:55.357Z,23.08
2022-09-17T21:24:49.987Z,22.94
2022-09-17T21:29:43.285Z,23.00
2022-09-17T21:34:36.518Z,22.97
2022-09-17T21:39:30.006Z,22.86
2022-09-17T21:44:24.601Z,22.48
2022-09-17T21:49:18.540Z,22.87
2022-09-17T21:54:13.488Z,22.82
2022-09-17T21:59:08.068Z,22.30
2022-09-17T22:04:03.322Z,22.41
2022-09-17T22:08:57.594Z,22.41
2022-09-17T22:13:54.805Z,22.72
2022-09-17T22:18:50.022Z,22.55
2022-09-17T22:23:44.891Z,22.27
2022-09-17T22:28:38.188Z,22.65
2022-09-17T22:33:34.005Z,22.60
2022-09-17T22:38:27.779Z,22.56
2022-09-17T22:43:22.664Z,21.70
2022-09-17T22:48:15.880Z,22.58
2022-09-17T22:53:09.048Z,22.49
2022-09-17T22:58:02.388Z,22.53
2022-09-17T23:02:57.070Z,22.56
2022-09-17T23:07:50.277Z,22.43
2022-09-17T23:12:43.492Z,22.23
2022-09-17T23:17:36.823Z,22.14
2022-09-17T23:22:31.510Z,22.34
2022-09-17T23:27:26.746Z,22.41
2022-09-17T23:32:20.134Z,22.38
2022-09-17T23:37:13.349Z,21.98
2022-09-17T23:42:08.129Z,22.16
2022-09-17T23:47:01.284Z,22.02
2022-09-17T23:51:54.471Z,22.34
2022-09-17T23:56:47.698Z,22.34
